sensor_id;sensor_type;location;lat;lon;timestamp;P1;durP1;ratioP1;P2;durP2;ratioP2
58581;SDS011;44361;51.476;5.700;2024-01-16T00:00:04;9.10;;;4.35;;
58581;SDS011;44361;51.476;5.700;2024-01-16T00:02:30;12.75;;;4.43;;
58581;SDS011;44361;51.476;5.700;2024-01-16T00:04:55;13.55;;;4.57;;
58581;SDS011;44361;51.476;5.700;2024-01-16T00:07:21;10.38;;;4.85;;
58581;SDS011;44361;51.476;5.700;2024-01-16T00:09:46;9.50;;;4.05;;
58581;SDS011;44361;51.476;5.700;2024-01-16T00:12:12;9.43;;;3.80;;
58581;SDS011;44361;51.476;5.700;2024-01-16T00:14:38;7.35;;;4.00;;
58581;SDS011;44361;51.476;5.700;2024-01-16T00:17:03;11.55;;;4.00;;
58581;SDS011;44361;51.476;5.700;2024-01-16T00:19:30;6.70;;;4.03;;
58581;SDS011;44361;51.476;5.700;2024-01-16T00:21:56;9.35;;;4.30;;
58581;SDS011;44361;51.476;5.700;2024-01-16T00:24:21;6.28;;;3.15;;
58581;SDS011;44361;51.476;5.700;2024-01-16T00:26:47;7.13;;;3.70;;
58581;SDS011;44361;51.476;5.700;2024-01-16T00:29:14;6.07;;;3.50;;
58581;SDS011;44361;51.476;5.700;2024-01-16T00:31:40;7.60;;;3.90;;
58581;SDS011;44361;51.476;5.700;2024-01-16T00:34:06;10.13;;;4.25;;
58581;SDS011;44361;51.476;5.700;2024-01-16T00:36:32;6.38;;;3.75;;
58581;SDS011;44361;51.476;5.700;2024-01-16T00:38:58;6.82;;;4.00;;
58581;SDS011;44361;51.476;5.700;2024-01-16T00:41:23;8.30;;;4.50;;
58581;SDS011;44361;51.476;5.700;2024-01-16T00:43:49;8.27;;;4.18;;
58581;SDS011;44361;51.476;5.700;2024-01-16T00:46:14;11.40;;;5.00;;
58581;SDS011;44361;51.476;5.700;2024-01-16T00:48:40;9.80;;;4.65;;
58581;SDS011;44361;51.476;5.700;2024-01-16T00:51:06;11.00;;;5.75;;
58581;SDS011;44361;51.476;5.700;2024-01-16T00:53:31;11.15;;;5.28;;
58581;SDS011;44361;51.476;5.700;2024-01-16T00:55:57;12.10;;;5.35;;
58581;SDS011;44361;51.476;5.700;2024-01-16T00:58:23;17.10;;;5.95;;
58581;SDS011;44361;51.476;5.700;2024-01-16T01:00:48;17.58;;;5.75;;
58581;SDS011;44361;51.476;5.700;2024-01-16T01:03:14;12.23;;;6.18;;
58581;SDS011;44361;51.476;5.700;2024-01-16T01:05:40;17.65;;;6.05;;
58581;SDS011;44361;51.476;5.700;2024-01-16T01:08:06;14.77;;;6.05;;
58581;SDS011;44361;51.476;5.700;2024-01-16T01:10:32;17.45;;;4.95;;
58581;SDS011;44361;51.476;5.700;2024-01-16T01:12:58;11.77;;;4.80;;
58581;SDS011;44361;51.476;5.700;2024-01-16T01:15:23;12.15;;;5.18;;
58581;SDS011;44361;51.476;5.700;2024-01-16T01:17:49;11.10;;;5.47;;
58581;SDS011;44361;51.476;5.700;2024-01-16T01:20:15;8.55;;;4.35;;
58581;SDS011;44361;51.476;5.700;2024-01-16T01:22:41;13.75;;;5.55;;
58581;SDS011;44361;51.476;5.700;2024-01-16T01:25:06;15.18;;;5.47;;
58581;SDS011;44361;51.476;5.700;2024-01-16T01:27:33;14.48;;;5.00;;
58581;SDS011;44361;51.476;5.700;2024-01-16T01:29:58;13.23;;;4.88;;
58581;SDS011;44361;51.476;5.700;2024-01-16T01:32:24;10.57;;;4.85;;
58581;SDS011;44361;51.476;5.700;2024-01-16T01:34:49;13.90;;;5.18;;
58581;SDS011;44361;51.476;5.700;2024-01-16T01:37:15;14.57;;;4.88;;
58581;SDS011;44361;51.476;5.700;2024-01-16T01:39:40;11.70;;;4.90;;
58581;SDS011;44361;51.476;5.700;2024-01-16T01:42:06;14.70;;;5.20;;
58581;SDS011;44361;51.476;5.700;2024-01-16T01:44:32;13.10;;;5.53;;
58581;SDS011;44361;51.476;5.700;2024-01-16T01:46:57;11.15;;;4.78;;
58581;SDS011;44361;51.476;5.700;2024-01-16T01:49:23;16.33;;;5.63;;
58581;SDS011;44361;51.476;5.700;2024-01-16T01:51:50;13.00;;;5.18;;
58581;SDS011;44361;51.476;5.700;2024-01-16T01:54:16;11.88;;;5.30;;
58581;SDS011;44361;51.476;5.700;2024-01-16T01:56:44;12.68;;;5.70;;
58581;SDS011;44361;51.476;5.700;2024-01-16T01:59:10;12.82;;;5.03;;
58581;SDS011;44361;51.476;5.700;2024-01-16T02:01:38;17.08;;;5.30;;
58581;SDS011;44361;51.476;5.700;2024-01-16T02:04:04;13.05;;;4.93;;
58581;SDS011;44361;51.476;5.700;2024-01-16T02:06:31;13.25;;;4.80;;
58581;SDS011;44361;51.476;5.700;2024-01-16T02:08:57;9.75;;;4.68;;
58581;SDS011;44361;51.476;5.700;2024-01-16T02:11:24;11.80;;;4.82;;
58581;SDS011;44361;51.476;5.700;2024-01-16T02:13:49;22.88;;;4.88;;
58581;SDS011;44361;51.476;5.700;2024-01-16T02:16:19;14.65;;;4.72;;
58581;SDS011;44361;51.476;5.700;2024-01-16T02:18:45;11.48;;;4.55;;
58581;SDS011;44361;51.476;5.700;2024-01-16T02:21:11;11.02;;;4.28;;
58581;SDS011;44361;51.476;5.700;2024-01-16T02:23:41;9.32;;;3.50;;
58581;SDS011;44361;51.476;5.700;2024-01-16T02:26:07;9.93;;;4.40;;
58581;SDS011;44361;51.476;5.700;2024-01-16T02:28:33;9.23;;;3.80;;
58581;SDS011;44361;51.476;5.700;2024-01-16T02:30:58;8.02;;;3.40;;
58581;SDS011;44361;51.476;5.700;2024-01-16T02:33:24;8.93;;;3.45;;
58581;SDS011;44361;51.476;5.700;2024-01-16T02:35:49;11.00;;;3.70;;
58581;SDS011;44361;51.476;5.700;2024-01-16T02:38:15;8.60;;;3.40;;
58581;SDS011;44361;51.476;5.700;2024-01-16T02:40:41;6.28;;;2.75;;
58581;SDS011;44361;51.476;5.700;2024-01-16T02:43:06;10.18;;;2.92;;
58581;SDS011;44361;51.476;5.700;2024-01-16T02:45:32;11.30;;;2.70;;
58581;SDS011;44361;51.476;5.700;2024-01-16T02:47:58;6.30;;;2.33;;
58581;SDS011;44361;51.476;5.700;2024-01-16T02:50:24;7.50;;;2.20;;
58581;SDS011;44361;51.476;5.700;2024-01-16T02:52:49;11.77;;;2.22;;
58581;SDS011;44361;51.476;5.700;2024-01-16T02:55:15;4.30;;;2.30;;
58581;SDS011;44361;51.476;5.700;2024-01-16T02:57:40;6.65;;;2.45;;
58581;SDS011;44361;51.476;5.700;2024-01-16T03:00:06;8.80;;;2.90;;
58581;SDS011;44361;51.476;5.700;2024-01-16T03:02:33;4.82;;;2.53;;
58581;SDS011;44361;51.476;5.700;2024-01-16T03:04:59;5.90;;;2.10;;
58581;SDS011;44361;51.476;5.700;2024-01-16T03:07:24;9.85;;;2.72;;
58581;SDS011;44361;51.476;5.700;2024-01-16T03:09:50;7.13;;;2.47;;
58581;SDS011;44361;51.476;5.700;2024-01-16T03:12:16;6.75;;;2.60;;
58581;SDS011;44361;51.476;5.700;2024-01-16T03:14:42;11.25;;;2.60;;
58581;SDS011;44361;51.476;5.700;2024-01-16T03:17:07;8.77;;;2.72;;
58581;SDS011;44361;51.476;5.700;2024-01-16T03:19:33;5.43;;;2.40;;
58581;SDS011;44361;51.476;5.700;2024-01-16T03:21:59;5.80;;;2.65;;
58581;SDS011;44361;51.476;5.700;2024-01-16T03:24:24;13.43;;;3.00;;
58581;SDS011;44361;51.476;5.700;2024-01-16T03:26:51;11.57;;;2.80;;
58581;SDS011;44361;51.476;5.700;2024-01-16T03:29:16;12.02;;;2.75;;
58581;SDS011;44361;51.476;5.700;2024-01-16T03:31:42;10.38;;;2.70;;
58581;SDS011;44361;51.476;5.700;2024-01-16T03:34:08;12.68;;;2.85;;
58581;SDS011;44361;51.476;5.700;2024-01-16T03:36:35;8.30;;;2.35;;
58581;SDS011;44361;51.476;5.700;2024-01-16T03:39:01;8.93;;;2.33;;
58581;SDS011;44361;51.476;5.700;2024-01-16T03:41:27;10.98;;;2.08;;
58581;SDS011;44361;51.476;5.700;2024-01-16T03:43:52;9.35;;;2.33;;
58581;SDS011;44361;51.476;5.700;2024-01-16T03:46:21;7.20;;;2.22;;
58581;SDS011;44361;51.476;5.700;2024-01-16T03:48:47;12.25;;;2.22;;
58581;SDS011;44361;51.476;5.700;2024-01-16T03:51:12;8.00;;;2.47;;
58581;SDS011;44361;51.476;5.700;2024-01-16T03:53:40;11.80;;;3.58;;
58581;SDS011;44361;51.476;5.700;2024-01-16T03:56:06;14.88;;;4.13;;
58581;SDS011;44361;51.476;5.700;2024-01-16T03:58:32;15.65;;;4.63;;
58581;SDS011;44361;51.476;5.700;2024-01-16T04:00:58;12.30;;;5.22;;
58581;SDS011;44361;51.476;5.700;2024-01-16T04:03:24;15.73;;;5.93;;
58581;SDS011;44361;51.476;5.700;2024-01-16T04:05:50;12.05;;;5.88;;
58581;SDS011;44361;51.476;5.700;2024-01-16T04:08:15;15.43;;;7.15;;
58581;SDS011;44361;51.476;5.700;2024-01-16T04:10:41;24.40;;;9.75;;
58581;SDS011;44361;51.476;5.700;2024-01-16T04:13:07;19.83;;;9.43;;
58581;SDS011;44361;51.476;5.700;2024-01-16T04:15:33;20.85;;;10.23;;
58581;SDS011;44361;51.476;5.700;2024-01-16T04:17:59;20.10;;;10.40;;
58581;SDS011;44361;51.476;5.700;2024-01-16T04:20:25;21.08;;;10.25;;
58581;SDS011;44361;51.476;5.700;2024-01-16T04:22:50;26.85;;;11.27;;
58581;SDS011;44361;51.476;5.700;2024-01-16T04:25:17;25.25;;;11.38;;
58581;SDS011;44361;51.476;5.700;2024-01-16T04:27:43;23.27;;;10.90;;
58581;SDS011;44361;51.476;5.700;2024-01-16T04:30:09;21.05;;;11.68;;
58581;SDS011;44361;51.476;5.700;2024-01-16T04:32:35;26.63;;;11.05;;
58581;SDS011;44361;51.476;5.700;2024-01-16T04:35:01;27.00;;;11.25;;
58581;SDS011;44361;51.476;5.700;2024-01-16T04:37:26;28.13;;;11.13;;
58581;SDS011;44361;51.476;5.700;2024-01-16T04:39:52;23.77;;;10.57;;
58581;SDS011;44361;51.476;5.700;2024-01-16T04:42:20;28.33;;;10.82;;
58581;SDS011;44361;51.476;5.700;2024-01-16T04:44:45;21.95;;;10.27;;
58581;SDS011;44361;51.476;5.700;2024-01-16T04:47:11;23.33;;;10.65;;
58581;SDS011;44361;51.476;5.700;2024-01-16T04:49:36;22.05;;;10.75;;
58581;SDS011;44361;51.476;5.700;2024-01-16T04:52:02;25.75;;;10.68;;
58581;SDS011;44361;51.476;5.700;2024-01-16T04:54:28;27.40;;;10.75;;
58581;SDS011;44361;51.476;5.700;2024-01-16T04:56:54;26.13;;;10.65;;
58581;SDS011;44361;51.476;5.700;2024-01-16T04:59:19;26.20;;;10.25;;
58581;SDS011;44361;51.476;5.700;2024-01-16T05:01:45;20.70;;;9.18;;
58581;SDS011;44361;51.476;5.700;2024-01-16T05:04:11;28.15;;;9.35;;
58581;SDS011;44361;51.476;5.700;2024-01-16T05:06:36;25.48;;;10.23;;
58581;SDS011;44361;51.476;5.700;2024-01-16T05:09:02;23.25;;;9.13;;
58581;SDS011;44361;51.476;5.700;2024-01-16T05:11:28;24.58;;;9.40;;
58581;SDS011;44361;51.476;5.700;2024-01-16T05:13:54;21.20;;;9.68;;
58581;SDS011;44361;51.476;5.700;2024-01-16T05:16:26;22.73;;;8.93;;
58581;SDS011;44361;51.476;5.700;2024-01-16T05:18:52;29.42;;;9.82;;
58581;SDS011;44361;51.476;5.700;2024-01-16T05:21:19;30.33;;;7.93;;
58581;SDS011;44361;51.476;5.700;2024-01-16T05:23:45;18.75;;;8.07;;
58581;SDS011;44361;51.476;5.700;2024-01-16T05:26:10;19.90;;;7.82;;
58581;SDS011;44361;51.476;5.700;2024-01-16T05:28:36;21.33;;;8.48;;
58581;SDS011;44361;51.476;5.700;2024-01-16T05:31:01;20.88;;;8.52;;
58581;SDS011;44361;51.476;5.700;2024-01-16T05:33:27;23.48;;;8.00;;
58581;SDS011;44361;51.476;5.700;2024-01-16T05:35:53;17.70;;;7.95;;
58581;SDS011;44361;51.476;5.700;2024-01-16T05:38:18;19.33;;;8.07;;
58581;SDS011;44361;51.476;5.700;2024-01-16T05:40:44;16.52;;;7.70;;
58581;SDS011;44361;51.476;5.700;2024-01-16T05:43:09;26.75;;;8.63;;
58581;SDS011;44361;51.476;5.700;2024-01-16T05:45:35;15.10;;;7.75;;
58581;SDS011;44361;51.476;5.700;2024-01-16T05:48:00;23.85;;;8.25;;
58581;SDS011;44361;51.476;5.700;2024-01-16T05:50:26;22.05;;;7.95;;
58581;SDS011;44361;51.476;5.700;2024-01-16T05:52:52;28.52;;;9.15;;
58581;SDS011;44361;51.476;5.700;2024-01-16T05:55:18;24.65;;;8.32;;
58581;SDS011;44361;51.476;5.700;2024-01-16T05:57:46;20.83;;;7.03;;
58581;SDS011;44361;51.476;5.700;2024-01-16T06:00:12;23.98;;;7.35;;
58581;SDS011;44361;51.476;5.700;2024-01-16T06:02:38;18.55;;;7.70;;
58581;SDS011;44361;51.476;5.700;2024-01-16T06:05:03;14.00;;;7.05;;
58581;SDS011;44361;51.476;5.700;2024-01-16T06:07:29;24.38;;;7.38;;
58581;SDS011;44361;51.476;5.700;2024-01-16T06:09:55;17.52;;;7.60;;
58581;SDS011;44361;51.476;5.700;2024-01-16T06:12:20;23.85;;;7.00;;
58581;SDS011;44361;51.476;5.700;2024-01-16T06:14:46;19.48;;;7.15;;
58581;SDS011;44361;51.476;5.700;2024-01-16T06:17:11;22.00;;;6.88;;
58581;SDS011;44361;51.476;5.700;2024-01-16T06:19:37;18.23;;;6.63;;
58581;SDS011;44361;51.476;5.700;2024-01-16T06:22:03;23.20;;;7.40;;
58581;SDS011;44361;51.476;5.700;2024-01-16T06:24:28;23.67;;;7.38;;
58581;SDS011;44361;51.476;5.700;2024-01-16T06:27:01;19.08;;;7.25;;
58581;SDS011;44361;51.476;5.700;2024-01-16T06:29:28;23.48;;;8.35;;
58581;SDS011;44361;51.476;5.700;2024-01-16T06:31:54;18.02;;;7.72;;
58581;SDS011;44361;51.476;5.700;2024-01-16T06:34:20;19.52;;;8.02;;
58581;SDS011;44361;51.476;5.700;2024-01-16T06:36:45;12.63;;;7.00;;
58581;SDS011;44361;51.476;5.700;2024-01-16T06:39:11;18.40;;;8.18;;
58581;SDS011;44361;51.476;5.700;2024-01-16T06:41:39;23.60;;;7.40;;
58581;SDS011;44361;51.476;5.700;2024-01-16T06:44:06;19.10;;;7.28;;
58581;SDS011;44361;51.476;5.700;2024-01-16T06:46:31;20.63;;;7.07;;
58581;SDS011;44361;51.476;5.700;2024-01-16T06:48:57;19.05;;;6.35;;
58581;SDS011;44361;51.476;5.700;2024-01-16T06:51:23;17.15;;;7.00;;
58581;SDS011;44361;51.476;5.700;2024-01-16T06:53:49;15.40;;;7.85;;
58581;SDS011;44361;51.476;5.700;2024-01-16T06:56:15;14.82;;;6.65;;
58581;SDS011;44361;51.476;5.700;2024-01-16T06:58:40;19.58;;;7.57;;
58581;SDS011;44361;51.476;5.700;2024-01-16T07:01:06;23.63;;;6.80;;
58581;SDS011;44361;51.476;5.700;2024-01-16T07:03:33;17.52;;;6.78;;
58581;SDS011;44361;51.476;5.700;2024-01-16T07:05:59;18.60;;;6.15;;
58581;SDS011;44361;51.476;5.700;2024-01-16T07:08:25;19.90;;;7.35;;
58581;SDS011;44361;51.476;5.700;2024-01-16T07:10:50;18.27;;;7.13;;
58581;SDS011;44361;51.476;5.700;2024-01-16T07:13:16;15.60;;;6.32;;
58581;SDS011;44361;51.476;5.700;2024-01-16T07:15:41;18.85;;;6.63;;
58581;SDS011;44361;51.476;5.700;2024-01-16T07:18:07;15.50;;;5.97;;
58581;SDS011;44361;51.476;5.700;2024-01-16T07:20:32;14.52;;;6.47;;
58581;SDS011;44361;51.476;5.700;2024-01-16T07:22:58;13.60;;;5.75;;
58581;SDS011;44361;51.476;5.700;2024-01-16T07:25:24;17.65;;;5.68;;
58581;SDS011;44361;51.476;5.700;2024-01-16T07:27:49;16.60;;;5.80;;
58581;SDS011;44361;51.476;5.700;2024-01-16T07:30:15;14.95;;;6.25;;
58581;SDS011;44361;51.476;5.700;2024-01-16T07:32:41;16.70;;;5.60;;
58581;SDS011;44361;51.476;5.700;2024-01-16T07:35:07;19.35;;;6.63;;
58581;SDS011;44361;51.476;5.700;2024-01-16T07:37:32;14.93;;;5.45;;
58581;SDS011;44361;51.476;5.700;2024-01-16T07:39:58;24.90;;;7.05;;
58581;SDS011;44361;51.476;5.700;2024-01-16T07:42:23;20.20;;;6.45;;
58581;SDS011;44361;51.476;5.700;2024-01-16T07:44:49;16.90;;;6.13;;
58581;SDS011;44361;51.476;5.700;2024-01-16T07:47:16;14.18;;;5.57;;
58581;SDS011;44361;51.476;5.700;2024-01-16T07:49:42;20.20;;;6.40;;
58581;SDS011;44361;51.476;5.700;2024-01-16T07:52:08;13.82;;;6.00;;
58581;SDS011;44361;51.476;5.700;2024-01-16T07:54:34;16.63;;;5.60;;
58581;SDS011;44361;51.476;5.700;2024-01-16T07:56:59;15.85;;;5.95;;
58581;SDS011;44361;51.476;5.700;2024-01-16T07:59:25;16.83;;;5.40;;
58581;SDS011;44361;51.476;5.700;2024-01-16T08:01:51;21.55;;;6.07;;
58581;SDS011;44361;51.476;5.700;2024-01-16T08:04:18;17.42;;;6.40;;
58581;SDS011;44361;51.476;5.700;2024-01-16T08:06:44;17.95;;;5.22;;
58581;SDS011;44361;51.476;5.700;2024-01-16T08:09:11;15.38;;;5.60;;
58581;SDS011;44361;51.476;5.700;2024-01-16T08:11:37;17.85;;;5.50;;
58581;SDS011;44361;51.476;5.700;2024-01-16T08:14:04;24.63;;;6.05;;
58581;SDS011;44361;51.476;5.700;2024-01-16T08:16:30;14.23;;;5.43;;
58581;SDS011;44361;51.476;5.700;2024-01-16T08:18:56;16.55;;;5.95;;
58581;SDS011;44361;51.476;5.700;2024-01-16T08:21:21;15.73;;;5.35;;
58581;SDS011;44361;51.476;5.700;2024-01-16T08:23:47;15.80;;;5.88;;
58581;SDS011;44361;51.476;5.700;2024-01-16T08:26:13;14.07;;;5.18;;
58581;SDS011;44361;51.476;5.700;2024-01-16T08:28:38;18.45;;;5.78;;
58581;SDS011;44361;51.476;5.700;2024-01-16T08:31:04;18.65;;;5.18;;
58581;SDS011;44361;51.476;5.700;2024-01-16T08:33:29;14.88;;;5.88;;
58581;SDS011;44361;51.476;5.700;2024-01-16T08:35:56;14.95;;;5.30;;
58581;SDS011;44361;51.476;5.700;2024-01-16T08:38:22;25.40;;;6.18;;
58581;SDS011;44361;51.476;5.700;2024-01-16T08:40:47;17.65;;;6.00;;
58581;SDS011;44361;51.476;5.700;2024-01-16T08:43:13;12.77;;;5.25;;
58581;SDS011;44361;51.476;5.700;2024-01-16T08:45:39;12.98;;;4.70;;
58581;SDS011;44361;51.476;5.700;2024-01-16T08:48:05;22.15;;;5.53;;
58581;SDS011;44361;51.476;5.700;2024-01-16T08:50:30;14.38;;;5.43;;
58581;SDS011;44361;51.476;5.700;2024-01-16T08:52:56;22.60;;;4.90;;
58581;SDS011;44361;51.476;5.700;2024-01-16T08:55:21;12.88;;;5.75;;
58581;SDS011;44361;51.476;5.700;2024-01-16T08:57:47;12.55;;;4.43;;
58581;SDS011;44361;51.476;5.700;2024-01-16T09:00:12;19.85;;;5.35;;
58581;SDS011;44361;51.476;5.700;2024-01-16T09:02:38;14.00;;;4.57;;
58581;SDS011;44361;51.476;5.700;2024-01-16T09:05:04;17.15;;;5.03;;
58581;SDS011;44361;51.476;5.700;2024-01-16T09:07:30;15.23;;;4.55;;
58581;SDS011;44361;51.476;5.700;2024-01-16T09:09:55;15.75;;;5.07;;
58581;SDS011;44361;51.476;5.700;2024-01-16T09:12:21;12.75;;;4.55;;
58581;SDS011;44361;51.476;5.700;2024-01-16T09:14:46;14.13;;;5.75;;
58581;SDS011;44361;51.476;5.700;2024-01-16T09:17:12;21.05;;;5.10;;
58581;SDS011;44361;51.476;5.700;2024-01-16T09:19:38;9.02;;;4.32;;
58581;SDS011;44361;51.476;5.700;2024-01-16T09:22:03;17.05;;;4.68;;
58581;SDS011;44361;51.476;5.700;2024-01-16T09:24:29;14.80;;;4.57;;
58581;SDS011;44361;51.476;5.700;2024-01-16T09:26:55;9.18;;;4.43;;
58581;SDS011;44361;51.476;5.700;2024-01-16T09:29:21;13.02;;;4.88;;
58581;SDS011;44361;51.476;5.700;2024-01-16T09:31:47;12.65;;;4.57;;
58581;SDS011;44361;51.476;5.700;2024-01-16T09:34:13;12.57;;;4.07;;
58581;SDS011;44361;51.476;5.700;2024-01-16T09:36:39;12.48;;;4.90;;
58581;SDS011;44361;51.476;5.700;2024-01-16T09:39:05;14.75;;;4.47;;
58581;SDS011;44361;51.476;5.700;2024-01-16T09:41:36;12.73;;;4.60;;
58581;SDS011;44361;51.476;5.700;2024-01-16T09:44:03;13.02;;;4.22;;
58581;SDS011;44361;51.476;5.700;2024-01-16T09:46:29;9.43;;;4.20;;
58581;SDS011;44361;51.476;5.700;2024-01-16T09:48:56;10.23;;;5.13;;
58581;SDS011;44361;51.476;5.700;2024-01-16T09:51:24;16.20;;;5.00;;
58581;SDS011;44361;51.476;5.700;2024-01-16T09:53:50;16.00;;;4.88;;
58581;SDS011;44361;51.476;5.700;2024-01-16T09:56:16;11.23;;;4.70;;
58581;SDS011;44361;51.476;5.700;2024-01-16T09:58:45;9.85;;;4.85;;
58581;SDS011;44361;51.476;5.700;2024-01-16T10:01:14;16.35;;;5.15;;
58581;SDS011;44361;51.476;5.700;2024-01-16T10:03:42;13.20;;;4.95;;
58581;SDS011;44361;51.476;5.700;2024-01-16T10:06:09;11.93;;;4.30;;
58581;SDS011;44361;51.476;5.700;2024-01-16T10:08:36;14.32;;;4.88;;
58581;SDS011;44361;51.476;5.700;2024-01-16T10:11:02;11.43;;;4.50;;
58581;SDS011;44361;51.476;5.700;2024-01-16T10:13:28;8.05;;;3.90;;
58581;SDS011;44361;51.476;5.700;2024-01-16T10:15:54;15.07;;;4.38;;
58581;SDS011;44361;51.476;5.700;2024-01-16T10:18:24;11.27;;;4.65;;
58581;SDS011;44361;51.476;5.700;2024-01-16T10:20:50;11.10;;;3.83;;
58581;SDS011;44361;51.476;5.700;2024-01-16T10:23:27;11.45;;;4.43;;
58581;SDS011;44361;51.476;5.700;2024-01-16T10:28:34;12.48;;;4.15;;
58581;SDS011;44361;51.476;5.700;2024-01-16T10:31:01;10.45;;;4.43;;
58581;SDS011;44361;51.476;5.700;2024-01-16T10:33:28;19.98;;;5.18;;
58581;SDS011;44361;51.476;5.700;2024-01-16T10:36:07;12.43;;;4.80;;
58581;SDS011;44361;51.476;5.700;2024-01-16T10:38:42;13.60;;;4.85;;
58581;SDS011;44361;51.476;5.700;2024-01-16T10:41:12;12.38;;;5.07;;
58581;SDS011;44361;51.476;5.700;2024-01-16T10:43:39;12.57;;;5.25;;
58581;SDS011;44361;51.476;5.700;2024-01-16T10:48:41;19.35;;;5.53;;
58581;SDS011;44361;51.476;5.700;2024-01-16T10:51:24;11.80;;;4.63;;
58581;SDS011;44361;51.476;5.700;2024-01-16T10:53:52;18.38;;;5.43;;
58581;SDS011;44361;51.476;5.700;2024-01-16T10:56:24;8.50;;;4.57;;
58581;SDS011;44361;51.476;5.700;2024-01-16T10:58:55;7.20;;;4.07;;
58581;SDS011;44361;51.476;5.700;2024-01-16T11:01:31;11.70;;;5.05;;
58581;SDS011;44361;51.476;5.700;2024-01-16T11:03:57;11.40;;;4.97;;
58581;SDS011;44361;51.476;5.700;2024-01-16T11:06:24;15.57;;;5.18;;
58581;SDS011;44361;51.476;5.700;2024-01-16T11:08:50;13.38;;;5.28;;
58581;SDS011;44361;51.476;5.700;2024-01-16T11:11:17;19.58;;;6.18;;
58581;SDS011;44361;51.476;5.700;2024-01-16T11:13:43;11.32;;;4.68;;
58581;SDS011;44361;51.476;5.700;2024-01-16T11:16:11;18.30;;;6.07;;
58581;SDS011;44361;51.476;5.700;2024-01-16T11:18:37;13.48;;;5.22;;
58581;SDS011;44361;51.476;5.700;2024-01-16T11:21:07;10.10;;;4.60;;
58581;SDS011;44361;51.476;5.700;2024-01-16T11:23:37;16.73;;;4.72;;
58581;SDS011;44361;51.476;5.700;2024-01-16T11:32:32;14.32;;;4.82;;
58581;SDS011;44361;51.476;5.700;2024-01-16T11:34:58;7.97;;;4.32;;
58581;SDS011;44361;51.476;5.700;2024-01-16T11:37:25;10.05;;;4.32;;
58581;SDS011;44361;51.476;5.700;2024-01-16T11:42:49;12.43;;;4.85;;
58581;SDS011;44361;51.476;5.700;2024-01-16T11:48:09;12.55;;;4.38;;
58581;SDS011;44361;51.476;5.700;2024-01-16T11:50:42;10.45;;;4.32;;
58581;SDS011;44361;51.476;5.700;2024-01-16T11:53:08;10.90;;;4.90;;
58581;SDS011;44361;51.476;5.700;2024-01-16T11:55:34;10.43;;;4.63;;
58581;SDS011;44361;51.476;5.700;2024-01-16T11:58:21;9.15;;;4.35;;
58581;SDS011;44361;51.476;5.700;2024-01-16T12:01:07;11.75;;;4.95;;
58581;SDS011;44361;51.476;5.700;2024-01-16T12:03:33;13.80;;;4.32;;
58581;SDS011;44361;51.476;5.700;2024-01-16T12:05:59;8.13;;;4.53;;
58581;SDS011;44361;51.476;5.700;2024-01-16T12:08:25;13.32;;;4.45;;
58581;SDS011;44361;51.476;5.700;2024-01-16T12:10:52;14.25;;;4.68;;
58581;SDS011;44361;51.476;5.700;2024-01-16T12:13:17;9.35;;;4.30;;
58581;SDS011;44361;51.476;5.700;2024-01-16T12:15:43;11.23;;;4.20;;
58581;SDS011;44361;51.476;5.700;2024-01-16T12:18:09;8.82;;;4.13;;
58581;SDS011;44361;51.476;5.700;2024-01-16T12:20:36;10.30;;;4.43;;
58581;SDS011;44361;51.476;5.700;2024-01-16T12:23:03;10.68;;;5.00;;
58581;SDS011;44361;51.476;5.700;2024-01-16T12:25:34;12.73;;;5.07;;
58581;SDS011;44361;51.476;5.700;2024-01-16T12:28:01;10.88;;;4.45;;
58581;SDS011;44361;51.476;5.700;2024-01-16T12:30:30;12.32;;;4.50;;
58581;SDS011;44361;51.476;5.700;2024-01-16T12:33:07;14.70;;;5.03;;
58581;SDS011;44361;51.476;5.700;2024-01-16T12:35:34;14.05;;;4.78;;
58581;SDS011;44361;51.476;5.700;2024-01-16T12:38:01;8.10;;;4.50;;
58581;SDS011;44361;51.476;5.700;2024-01-16T12:40:28;11.43;;;4.68;;
58581;SDS011;44361;51.476;5.700;2024-01-16T12:42:54;13.30;;;5.10;;
58581;SDS011;44361;51.476;5.700;2024-01-16T12:45:20;11.77;;;4.50;;
58581;SDS011;44361;51.476;5.700;2024-01-16T12:47:50;11.13;;;4.68;;
58581;SDS011;44361;51.476;5.700;2024-01-16T12:50:21;15.00;;;4.53;;
58581;SDS011;44361;51.476;5.700;2024-01-16T12:52:53;10.23;;;4.72;;
58581;SDS011;44361;51.476;5.700;2024-01-16T12:55:30;11.52;;;4.45;;
58581;SDS011;44361;51.476;5.700;2024-01-16T13:00:42;9.00;;;4.68;;
58581;SDS011;44361;51.476;5.700;2024-01-16T13:03:18;9.93;;;4.32;;
58581;SDS011;44361;51.476;5.700;2024-01-16T13:05:45;8.20;;;4.03;;
58581;SDS011;44361;51.476;5.700;2024-01-16T13:08:20;9.65;;;4.13;;
58581;SDS011;44361;51.476;5.700;2024-01-16T13:10:46;13.52;;;4.63;;
58581;SDS011;44361;51.476;5.700;2024-01-16T13:13:16;11.27;;;4.65;;
58581;SDS011;44361;51.476;5.700;2024-01-16T13:15:43;15.68;;;4.50;;
58581;SDS011;44361;51.476;5.700;2024-01-16T13:18:17;9.70;;;4.32;;
58581;SDS011;44361;51.476;5.700;2024-01-16T13:20:49;14.07;;;4.65;;
58581;SDS011;44361;51.476;5.700;2024-01-16T13:23:16;11.88;;;5.00;;
58581;SDS011;44361;51.476;5.700;2024-01-16T13:25:42;11.23;;;4.75;;
58581;SDS011;44361;51.476;5.700;2024-01-16T13:28:10;10.00;;;4.40;;
58581;SDS011;44361;51.476;5.700;2024-01-16T13:30:36;8.88;;;4.07;;
58581;SDS011;44361;51.476;5.700;2024-01-16T13:33:02;11.85;;;4.10;;
58581;SDS011;44361;51.476;5.700;2024-01-16T13:35:29;11.18;;;4.40;;
58581;SDS011;44361;51.476;5.700;2024-01-16T13:37:55;8.27;;;3.72;;
58581;SDS011;44361;51.476;5.700;2024-01-16T13:40:21;7.72;;;3.97;;
58581;SDS011;44361;51.476;5.700;2024-01-16T13:42:47;12.65;;;4.50;;
58581;SDS011;44361;51.476;5.700;2024-01-16T13:45:13;8.77;;;4.72;;
58581;SDS011;44361;51.476;5.700;2024-01-16T13:47:39;11.30;;;3.78;;
58581;SDS011;44361;51.476;5.700;2024-01-16T13:50:08;10.68;;;4.13;;
58581;SDS011;44361;51.476;5.700;2024-01-16T13:52:38;10.20;;;4.10;;
58581;SDS011;44361;51.476;5.700;2024-01-16T13:55:06;10.10;;;4.10;;
58581;SDS011;44361;51.476;5.700;2024-01-16T13:57:32;9.93;;;4.75;;
58581;SDS011;44361;51.476;5.700;2024-01-16T14:00:00;7.25;;;4.00;;
58581;SDS011;44361;51.476;5.700;2024-01-16T14:02:26;14.32;;;4.20;;
58581;SDS011;44361;51.476;5.700;2024-01-16T14:04:52;12.45;;;3.95;;
58581;SDS011;44361;51.476;5.700;2024-01-16T14:07:17;14.68;;;4.07;;
58581;SDS011;44361;51.476;5.700;2024-01-16T14:09:43;11.45;;;3.90;;
58581;SDS011;44361;51.476;5.700;2024-01-16T14:12:08;8.93;;;4.20;;
58581;SDS011;44361;51.476;5.700;2024-01-16T14:14:34;11.40;;;4.28;;
58581;SDS011;44361;51.476;5.700;2024-01-16T14:17:00;9.63;;;4.43;;
58581;SDS011;44361;51.476;5.700;2024-01-16T14:19:27;9.48;;;4.03;;
58581;SDS011;44361;51.476;5.700;2024-01-16T14:21:55;9.95;;;3.78;;
58581;SDS011;44361;51.476;5.700;2024-01-16T14:24:21;10.15;;;4.18;;
58581;SDS011;44361;51.476;5.700;2024-01-16T14:26:46;11.73;;;4.60;;
58581;SDS011;44361;51.476;5.700;2024-01-16T14:29:12;11.80;;;5.13;;
58581;SDS011;44361;51.476;5.700;2024-01-16T14:31:40;12.10;;;4.95;;
58581;SDS011;44361;51.476;5.700;2024-01-16T14:34:12;8.70;;;4.07;;
58581;SDS011;44361;51.476;5.700;2024-01-16T14:36:40;11.40;;;3.70;;
58581;SDS011;44361;51.476;5.700;2024-01-16T14:39:06;10.75;;;3.63;;
58581;SDS011;44361;51.476;5.700;2024-01-16T14:41:38;9.32;;;3.75;;
58581;SDS011;44361;51.476;5.700;2024-01-16T14:44:08;9.70;;;3.53;;
58581;SDS011;44361;51.476;5.700;2024-01-16T14:46:34;11.98;;;3.65;;
58581;SDS011;44361;51.476;5.700;2024-01-16T14:49:02;10.15;;;3.67;;
58581;SDS011;44361;51.476;5.700;2024-01-16T14:51:28;12.98;;;4.05;;